Opal Express — V7KB8 — position and weather

sailwx.info

Track history (hours):
 
Tides and Currents Weather Stations Pressure Air Temp Water Temp Dewpoint Dewpoint Depression Visibility Wind Speed Wind Dir Waves Ship Positions

Opal Express

Last reported at 2016-Jun-13 11:30 UTC. Time now 2016-Jun-30 21:25 UTC.
Position S 23°04' W 070°24'.
Warning: this ship's position is 17 days out of date.

Length 179 m; draft 7.8 m.

Type: Tanker. MMSI: 538002500.

Date/timePositionNaut miles runAvg speedWind from/ knotsBaromVisibWave heightAir tempDewpointWater temp
2016-Jun-13 11:30S 23°04' W 070°24'1 0.5
2016-Jun-13 10:20S 23°04' W 070°25'0 0.0
2016-Jun-13 08:32S 23°04' W 070°25'0 0.0
2016-Jun-13 07:32S 23°04' W 070°25'0 0.0
2016-Jun-13 06:32S 23°04' W 070°25'0 0.0
2016-Jun-13 05:32S 23°04' W 070°25'0 0.0
2016-Jun-13 04:32S 23°04' W 070°25'0 0.0
2016-Jun-13 03:32S 23°04' W 070°25'0 0.0
2016-Jun-13 02:32S 23°04' W 070°25'0 0.0
2016-Jun-13 01:32S 23°04' W 070°25'0 0.0
2016-Jun-13 00:32S 23°04' W 070°25'0 0.0
2016-Jun-12 23:32S 23°04' W 070°25'0 0.0
2016-Jun-12 22:32S 23°04' W 070°25'0 0.0
2016-Jun-12 21:32S 23°04' W 070°25'0 0.0
2016-Jun-12 20:32S 23°04' W 070°25'0 0.0
2016-Jun-12 19:32S 23°04' W 070°25'0 0.0
2016-Jun-12 18:32S 23°04' W 070°25'0 0.0
2016-Jun-12 17:32S 23°04' W 070°25'0 0.0
2016-Jun-12 16:32S 23°04' W 070°25'0 0.0
2016-Jun-12 15:32S 23°04' W 070°25'0 0.0
2016-Jun-12 14:32S 23°04' W 070°25'0 0.0
2016-Jun-12 13:32S 23°04' W 070°25'0 0.0
2016-Jun-12 12:32S 23°04' W 070°25'0 0.0
2016-Jun-12 11:32S 23°04' W 070°25'0 0.0
2016-Jun-12 10:32S 23°04' W 070°25'0 0.0
2016-Jun-12 09:32S 23°04' W 070°25'0 0.0
2016-Jun-12 08:32S 23°04' W 070°25'0 0.0
2016-Jun-12 07:29S 23°04' W 070°25'0 0.0
2016-Jun-12 06:32S 23°04' W 070°25'0 0.0
2016-Jun-12 04:32S 23°04' W 070°25'0 0.1
2016-Jun-12 03:32S 23°04' W 070°25'0 0.0
2016-Jun-12 02:32S 23°04' W 070°25'0 0.0
2016-Jun-12 01:32S 23°04' W 070°25'0 0.1
2016-Jun-12 00:32S 23°04' W 070°25'0 0.1
2016-Jun-11 23:11S 23°04' W 070°25'3 2.9
2016-Jun-11 22:16S 23°01' W 070°26'2311.2
2016-Jun-11 20:15S 22°44' W 070°42'14413.0
2016-Jun-11 09:09S 20°54' W 072°22'9313.1
2016-Jun-11 02:05S 19°44' W 073°25'713.3
2016-Jun-11 01:33S 19°39' W 073°30'2913.2
2016-Jun-10 23:21S 19°16' W 073°50'  
2016-Jun-05 01:32N 08°54' W 079°32'15 2.4
2016-Jun-04 19:03N 09°06' W 079°42'5 7.8
2016-Jun-04 18:25N 09°07' W 079°47'7 8.6
2016-Jun-04 17:33N 09°11' W 079°53'4 0.9
2016-Jun-04 12:27N 09°15' W 079°55'1 1.6
2016-Jun-04 11:34N 09°16' W 079°55'0 0.3
2016-Jun-04 10:33N 09°17' W 079°55'1 1.3
2016-Jun-04 09:34N 09°18' W 079°55'6 6.3
2016-Jun-04 08:34N 09°24' W 079°55'  
Track history (hours):
 
Tides and Currents Weather Stations Pressure Air Temp Water Temp Dewpoint Dewpoint Depression Visibility Wind Speed Wind Dir Waves Ship Positions

Opal Express

Last reported at 2016-Jun-13 11:30 UTC. Time now 2016-Jun-30 21:25 UTC.
Position S 23°04' W 070°24'.
Warning: this ship's position is 17 days out of date.

Length 179 m; draft 7.8 m.

Type: Tanker. MMSI: 538002500.

Date/timePositionNaut miles runAvg speedWind from/ knotsBaromVisibWave heightAir tempDewpointWater temp
2016-Jun-13 11:30S 23°04' W 070°24'1 0.5
2016-Jun-13 10:20S 23°04' W 070°25'0 0.0
2016-Jun-13 08:32S 23°04' W 070°25'0 0.0
2016-Jun-13 07:32S 23°04' W 070°25'0 0.0
2016-Jun-13 06:32S 23°04' W 070°25'0 0.0
2016-Jun-13 05:32S 23°04' W 070°25'0 0.0
2016-Jun-13 04:32S 23°04' W 070°25'0 0.0
2016-Jun-13 03:32S 23°04' W 070°25'0 0.0
2016-Jun-13 02:32S 23°04' W 070°25'0 0.0
2016-Jun-13 01:32S 23°04' W 070°25'0 0.0
2016-Jun-13 00:32S 23°04' W 070°25'0 0.0
2016-Jun-12 23:32S 23°04' W 070°25'0 0.0
2016-Jun-12 22:32S 23°04' W 070°25'0 0.0
2016-Jun-12 21:32S 23°04' W 070°25'0 0.0
2016-Jun-12 20:32S 23°04' W 070°25'0 0.0
2016-Jun-12 19:32S 23°04' W 070°25'0 0.0
2016-Jun-12 18:32S 23°04' W 070°25'0 0.0
2016-Jun-12 17:32S 23°04' W 070°25'0 0.0
2016-Jun-12 16:32S 23°04' W 070°25'0 0.0
2016-Jun-12 15:32S 23°04' W 070°25'0 0.0
2016-Jun-12 14:32S 23°04' W 070°25'0 0.0
2016-Jun-12 13:32S 23°04' W 070°25'0 0.0
2016-Jun-12 12:32S 23°04' W 070°25'0 0.0
2016-Jun-12 11:32S 23°04' W 070°25'0 0.0
2016-Jun-12 10:32S 23°04' W 070°25'0 0.0
2016-Jun-12 09:32S 23°04' W 070°25'0 0.0
2016-Jun-12 08:32S 23°04' W 070°25'0 0.0
2016-Jun-12 07:29S 23°04' W 070°25'0 0.0
2016-Jun-12 06:32S 23°04' W 070°25'0 0.0
2016-Jun-12 04:32S 23°04' W 070°25'0 0.1
2016-Jun-12 03:32S 23°04' W 070°25'0 0.0
2016-Jun-12 02:32S 23°04' W 070°25'0 0.0
2016-Jun-12 01:32S 23°04' W 070°25'0 0.1
2016-Jun-12 00:32S 23°04' W 070°25'0 0.1
2016-Jun-11 23:11S 23°04' W 070°25'3 2.9
2016-Jun-11 22:16S 23°01' W 070°26'2311.2
2016-Jun-11 20:15S 22°44' W 070°42'14413.0
2016-Jun-11 09:09S 20°54' W 072°22'9313.1
2016-Jun-11 02:05S 19°44' W 073°25'713.3
2016-Jun-11 01:33S 19°39' W 073°30'2913.2
2016-Jun-10 23:21S 19°16' W 073°50'  
2016-Jun-05 01:32N 08°54' W 079°32'15 2.4
2016-Jun-04 19:03N 09°06' W 079°42'5 7.8
2016-Jun-04 18:25N 09°07' W 079°47'7 8.6
2016-Jun-04 17:33N 09°11' W 079°53'4 0.9
2016-Jun-04 12:27N 09°15' W 079°55'1 1.6
2016-Jun-04 11:34N 09°16' W 079°55'0 0.3
2016-Jun-04 10:33N 09°17' W 079°55'1 1.3
2016-Jun-04 09:34N 09°18' W 079°55'6 6.3
2016-Jun-04 08:34N 09°24' W 079°55'  

Dump ship's entire track history